Earning Calendar for Industry: Major Pharmaceuticals

Report Date Report Time Symbol Name Sector Market Cap(M) EPS EPS Forecast EPS Surprise Price(ER) Day 1 Price Change% Day 2 Price Change% Two Days Price Change%
2018-03-15 SELB Selecta Biosciences, Inc. Health Care 342 -0.88 0 0
2018-03-14 QURE uniQure N.V. Health Care 130.95 -0.91 -0.68 -33.82
2018-03-14 RARX Ra Pharmaceuticals, Inc. Health Care 482.05 -0.67 0 0
2018-03-13 SCYX SCYNEXIS, Inc. Health Care 44.12 -0.27 0 0
2018-03-12 SBBP Strongbridge Biopharma plc Health Care 151.94 -0.34 -0.34 0
2018-03-12 ZSAN Zosano Pharma Corporation Health Care 49.39 -3.8 -4.8 20.83
2018-03-08 TOCA Tocagen Inc. Health Care 287.8 -0.55 -0.53 -3.77
2018-03-08 TGTX TG Therapeutics, Inc. Health Care 737.87 -0.46 -0.46 0
2018-03-08 SNSS Sunesis Pharmaceuticals, Inc. Health Care 61.16 -0.21 -0.25 16
2018-03-08 JNP Juniper Pharmaceuticals, Inc. Health Care 55.85 0.11 -0.11 200
2018-03-07 PTGX Protagonist Therapeutics, Inc. Health Care 182.72 -0.15 -0.36 58.33
2018-03-07 RGLS Regulus Therapeutics Inc. Health Care 51.85 -0.14 -0.17 17.65
2018-03-06 RIGL Rigel Pharmaceuticals, Inc. Health Care 320.78 -0.18 -0.13 -38.46
2018-03-06 PTCT PTC Therapeutics, Inc. Health Care 692.28 0.03 0.06 -50
2018-03-06 SPPI Spectrum Pharmaceuticals, Inc. Health Care 519.46 -0.29 -0.25 -16
2018-03-05 ARQL ArQule, Inc. Health Care 81.11 -0.09 -0.09 0
2018-03-05 ANAB AnaptysBio, Inc. Health Care 474.3 -0.3 -0.41 26.83
2018-03-05 SNDX Syndax Pharmaceuticals, Inc. Health Care 196.43 -0.8 -0.85 5.88
2018-03-02 EYEG Eyegate Pharmaceuticals, Inc. Health Care 14.14 -0.21 -0.25 16
2018-03-01 CMRX Chimerix, Inc. Health Care 227.66 -0.41 -0.48 14.58
2018-03-01 PRGO Perrigo Company Health Care 10440 1.28 1.24 3.23
2018-03-01 RDUS Radius Health, Inc. Health Care 1760 -1.59 -1.48 -7.43
2018-03-01 SRPT Sarepta Therapeutics, Inc. Health Care 1780 -0.37 -0.31 -19.35
2018-03-01 NKTR Nektar Therapeutics Health Care 2810 -0.14 -0.38 63.16
2018-03-01 PRTK Paratek Pharmaceuticals, Inc. Health Care 604.68 -0.78 -0.72 -8.33
2018-03-01 ADRO Aduro Biotech, Inc. Health Care 734.09 -0.35 -0.36 2.78
2018-03-01 SGYP Synergy Pharmaceuticals, Inc. Health Care 920.05 -0.18 -0.19 5.26
2018-02-28 MYL Mylan N.V. Health Care 19820 1.43 1.41 1.42
2018-02-28 PCRX Pacira Pharmaceuticals, Inc. Health Care 1750 0.18 -0.08 325
2018-02-28 PRQR ProQR Therapeutics N.V. Health Care 118.13 -0.46 -0.49 6.12
2018-02-28 ALIM Alimera Sciences, Inc. Health Care 86.32 -0.1 -0.05 -100
2018-02-28 VRX Valeant Pharmaceuticals International, Inc. Health Care 4140 0.98 0.99 -1.01
2018-02-28 PTLA Portola Pharmaceuticals, Inc. Health Care 2020 -1.41 -1.52 7.24
2018-02-28 RVNC Revance Therapeutics, Inc. Health Care 689.48 -1.14 -0.98 -16.33
2018-02-27 SUPN Supernus Pharmaceuticals, Inc. Health Care 1970 0.44 0.26 69.23
2018-02-27 ENDP Endo International plc Health Care 2410 0.77 0.62 24.19
2018-02-27 IONS Ionis Pharmaceuticals, Inc. Health Care 6230 0.02 -0.08 125
2018-02-27 MNK Mallinckrodt plc Health Care 4170 2.01 1.72 16.86
2018-02-27 AMAG AMAG Pharmaceuticals, Inc. Health Care 564.23 0.1 -0.58 117.24
2018-02-27 SRRA Sierra Oncology, Inc. Health Care 58.54 -0.2 -0.2 0
2018-02-27 HRTX Heron Therapeutics, Inc. Health Care 746.39 -1.09 -0.78 -39.74
2018-02-27 JAZZ Jazz Pharmaceuticals plc Health Care 9000 2.58 2.73 -5.49
2018-02-27 MGNX MacroGenics, Inc. Health Care 641.36 2.8 2.58 8.53
2018-02-27 OPHT Ophthotech Corporation Health Care 94.65 -0.26 -0.58 55.17
2018-02-27 ANIP ANI Pharmaceuticals, Inc. Health Care 525.57 1 1.02 -1.96
2018-02-27 FPRX Five Prime Therapeutics, Inc. Health Care 814.07 -1.04 -1.29 19.38
2018-02-27 ACAD ACADIA Pharmaceuticals Inc. Health Care 3210 -0.55 -0.58 5.17
2018-02-27 AKAO Achaogen, Inc. Health Care 890.41 -0.98 -0.79 -24.05
2018-02-27 REPH Recro Pharma, Inc. Health Care 118.12 -0.63 -0.85 25.88
2018-02-27 DEPO Depomed, Inc. Health Care 612.19 -0.38 -0.27 -40.74
2018-02-27 TBPH Theravance Biopharma, Inc. Health Care 1940 -1.64 -1.15 -42.61
2018-02-27 TSRO TESARO, Inc. Health Care 7770 -3.35 -2.41 -39
2018-02-27 VRNA Verona Pharma plc Health Care 161.91 -0.64 -0.83 22.89
2018-02-27 XNCR Xencor, Inc. Health Care 964.42 -0.25 -0.27 7.41
2018-02-27 MNKD MannKind Corporation Health Care 149.49 -0.28 -0.29 3.45
2018-02-27 AMRN Amarin Corporation plc Health Care 803.26 -0.08 -0.05 -60
2018-02-27 RTRX Retrophin, Inc. Health Care 677.95 -0.39 -0.19 -105.26
2018-02-26 EGRX Eagle Pharmaceuticals, Inc. Health Care 1120 0.84 1.03 -18.45
2018-02-26 ALDR Alder BioPharmaceuticals, Inc. Health Care 892.27 -0.8 -1.08 25.93
2018-02-26 CLVS Clovis Oncology, Inc. Health Care 2670 -1.27 -1.28 0.78
2018-02-26 ECYT Endocyte, Inc. Health Care 64.98 -0.18 -0.16 -12.5
2018-02-23 INSM Insmed, Inc. Health Care 964.88 -0.85 -0.67 -26.87
2018-02-22 LXRX Lexicon Pharmaceuticals, Inc. Health Care 1780 -0.31 -0.43 27.91
2018-02-22 ACHN Achillion Pharmaceuticals, Inc. Health Care 568.77 -0.17 -0.15 -13.33
2018-02-22 SAGE Sage Therapeutics, Inc. Health Care 2880 -1.75 -2.04 14.22
2018-02-22 DERM Dermira, Inc. Health Care 1210 -1.34 -1.25 -7.2
2018-02-22 RDHL Redhill Biopharma Ltd. Health Care 155.91 -0.5 -0.65 23.08
2018-02-22 BMRN BioMarin Pharmaceutical Inc. Health Care 15790 -0.3 -0.24 -25
2018-02-22 CORT Corcept Therapeutics Incorporated Health Care 1210 0.17 0.19 -10.53
2018-02-22 EBS Emergent Biosolutions, Inc. Health Care 1290 0.74 0.69 7.25
2018-02-22 ADMS Adamas Pharmaceuticals, Inc. Health Care 385.7 -1.27 -1.15 -10.43
2018-02-21 GTHX G1 Therapeutics, Inc. Health Care 582.48 -0.6 -0.58 -3.45
2018-02-21 BPMC Blueprint Medicines Corporation Health Care 1520 -1.23 -1.07 -14.95
2018-02-21 UTHR United Therapeutics Corporation Health Care 5880 2.06 1.94 6.19
2018-02-21 LGND Ligand Pharmaceuticals Incorporated Health Care 2410 1.03 0.92 11.96
2018-02-21 MDCO The Medicines Company Health Care 2710 -2.19 -1.48 -47.97
2018-02-20 ESPR Esperion Therapeutics, Inc. Health Care 780.71 -1.44 -1.8 20
2018-02-20 RARE Ultragenyx Pharmaceutical Inc. Health Care 2620 -2.27 -2 -13.5
2018-02-20 SBPH Spring Bank Pharmaceuticals, Inc. Health Care 134.51 -0.47 -0.65 27.69
2018-02-20 TXMD TherapeuticsMD, Inc. Health Care 913.59 -0.1 -0.09 -11.11
2018-02-16 IPCI Intellipharmaceutics International Inc. Health Care 65.64 -0.08 -0.07 -14.29
2018-02-15 CYTK Cytokinetics, Incorporated Health Care 620.85 -0.75 -0.71 -5.63
2018-02-15 ZTS Zoetis Inc. Health Care 30620 0.69 0.66 4.55
2018-02-15 IRWD Ironwood Pharmaceuticals, Inc. Health Care 2600 -0.14 -0.19 26.32
2018-02-14 VNDA Vanda Pharmaceuticals Inc. Health Care 612.59 -0.04 -0.12 66.67
2018-02-14 ICPT Intercept Pharmaceuticals, Inc. Health Care 2950 -4.43 -3.57 -24.09
2018-02-14 AGIO Agios Pharmaceuticals, Inc. Health Care 2430 -1.81 -1.65 -9.7
2018-02-14 DMPI DelMar Pharmaceuticals, Inc. Health Care 24.37 -0.14 -0.15 6.67
2018-02-14 SHPG Shire plc Health Care 49120 3.98 3.86 3.11
2018-02-14 OHRP Ohr Pharmaceuticals, Inc. Health Care 40.81 -0.07 0 0
2018-02-14 PRTA Prothena Corporation plc Health Care 2060 -1.24 -1.44 13.89
2018-02-14 ALKS Alkermes plc Health Care 8940 0.2 -0.01 2100
2018-02-13 ACST Acasti Pharma, Inc. Health Care 19.42 -0.31 -0.31 0
2018-02-13 EPIX ESSA Pharma Inc. Health Care 18.91 -0.07 0 0
2018-02-13 MYOV Myovant Sciences Ltd. Health Care 705.6 -0.7 -0.42 -66.67
2018-02-13 BIVV Bioverativ Inc. Health Care 6120 0.76 0.75 1.33
2018-02-12 VTGN VistaGen Therapeutics, Inc. Health Care 15.88 -0.24 0 0
2018-02-09 ARWR Arrowhead Pharmaceuticals, Inc. Health Care 125.62 -0.18 -0.18 0
2018-02-09 IMGN ImmunoGen, Inc. Health Care 404.75 -0.1 -0.07 -42.86
2018-02-08 INVA Innoviva, Inc. Health Care 1300 0.5 0.45 11.11
2018-02-08 ALXN Alexion Pharmaceuticals, Inc. Health Care 26490 1.28 1.09 17.43
2018-02-08 TEVA Teva Pharmaceutical Industries Limited Health Care 30920 0.91 0.77 18.18
2018-02-08 MEIP MEI Pharma, Inc. Health Care 75.38 -0.16 -0.26 38.46
2018-02-08 ALNY Alnylam Pharmaceuticals, Inc. Health Care 6490 -1.48 -1.38 -7.25
2018-02-08 REGN Regeneron Pharmaceuticals, Inc. Health Care 49900 4.46 4.18 6.7
2018-02-08 CBM Cambrex Corporation Health Care 1870 1.27 1.1 15.45
2018-02-08 CORI Corium International, Inc. Health Care 257.91 -0.37 -0.43 13.95
2018-02-07 SNY Sanofi Health Care 123440 0.62 0.69 -10.14
2018-02-07 LCI Lannett Co Inc Health Care 686.9 1.06 0.86 23.26
2018-02-07 GSK GlaxoSmithKline PLC Health Care 106790 0.72 0.69 4.35
2018-02-07 KMDA Kamada Ltd. Health Care 266.07 0.16 0.06 166.67
2018-02-07 KERX Keryx Biopharmaceuticals, Inc. Health Care 657.31 -0.26 -0.18 -44.44
2018-02-07 SNOA Sonoma Pharmaceuticals, Inc. Health Care 29.3 -0.73 -0.63 -15.87
2018-02-07 ENTA Enanta Pharmaceuticals, Inc. Health Care 623.27 0.78 0.05 1460
2018-02-07 LFVN Lifevantage Corporation Health Care 55.65 0.11 0 0
2018-02-07 SBOT Stellar Biotechnologies, Inc. Health Care 11.76 -0.13 -0.14 7.14
2018-02-06 AGN Allergan plc. Health Care 78850 4.86 4.75 2.32
2018-02-06 ARRY Array BioPharma Inc. Health Care 1300 -0.17 -0.23 26.09
2018-02-05 CTLT Catalent, Inc. Health Care 4620 0.41 0.31 32.26
2018-02-05 BMY Bristol-Myers Squibb Company Health Care 89420 0.68 0.67 1.49
2018-02-05 PAHC Phibro Animal Health Corporation Health Care 1380 0.44 0.39 12.82
2018-02-05 GWPH GW Pharmaceuticals Plc Health Care 2460 -2.43 -2.03 -19.7
2018-02-05 PTIE Pain Therapeutics, Inc. Health Care 26.23 -0.37 0 0
2018-02-02 AZN Astrazeneca PLC Health Care 86370 1.3 0.45 188.89
2018-02-02 MRK Merck & Company, Inc. Health Care 172840 0.98 0.94 4.26
2018-02-01 NVO Novo Nordisk A/S Health Care 108600 0.53 0.57 -7.02
2018-02-01 PBH Prestige Brand Holdings, Inc. Health Care 2780 0.7 0.7 0
2018-01-31 LLY Eli Lilly and Company Health Care 90530 1.14 1.08 5.56
2018-01-31 VRTX Vertex Pharmaceuticals Incorporated Health Care 30890 0.32 0.29 10.34
2018-01-30 PFE Pfizer, Inc. Health Care 195800 0.62 0.56 10.71
2018-01-26 ABBV AbbVie Inc. Health Care 112360 1.48 1.44 2.78
2018-01-25 RDY Dr. Reddy's Laboratories Ltd Health Care 6950 0.41 0 0
2018-01-25 CELG Celgene Corporation Health Care 94180 1.87 1.78 5.06
2018-01-24 NVS Novartis AG Health Care 190310 1.2 1.16 3.45
2018-01-24 ABT Abbott Laboratories Health Care 83500 0.74 0.73 1.37
2018-01-23 JNJ Johnson & Johnson Health Care 358390 1.74 1.72 1.16
2018-01-11 ORMP Oramed Pharmaceuticals Inc. Health Care 99.04 -0.18 -0.24 25
2017-12-20 ADXS Advaxis, Inc. Health Care 243.18 -0.57 -0.55 -3.64
2017-12-15 OHRP Ohr Pharmaceuticals, Inc. Health Care 40.81 -0.08 -0.08 0
2017-12-12 ARWR Arrowhead Pharmaceuticals, Inc. Health Care 125.62 -0.14 -0.12 -16.67
2017-12-11 EPIX ESSA Pharma Inc. Health Care 18.91 -0.09 0 0
2017-12-11 PPHM Peregrine Pharmaceuticals Inc. Health Care 164.34 -0.27 -0.12 -125
2017-12-06 SMMT Summit Therapeutics plc Health Care 137.91 -0.2 -0.73 72.6
2017-12-04 GWPH GW Pharmaceuticals Plc Health Care 2460 -2.18 -1.73 -26.01
2017-12-01 SBOT Stellar Biotechnologies, Inc. Health Care 11.76 -0.12 -0.14 14.29
2017-11-30 MRUS Merus N.V. Health Care 271.3 -0.95 -0.69 -37.68
2017-11-29 ORMP Oramed Pharmaceuticals Inc. Health Care 99.04 -0.2 0 0
2017-11-28 EARS Auris Medical Holding AG Health Care 32.71 -0.15 -0.2 25